sensor_id;sensor_type;location;lat;lon;timestamp;pressure;altitude;pressure_sealevel;temperature;humidity
51229;BME280;37304;52.216;6.874;2023-01-31T00:04:10;102020.22;;;1.06;100.00
51229;BME280;37304;52.216;6.874;2023-01-31T00:09:13;102025.34;;;1.06;100.00
51229;BME280;37304;52.216;6.874;2023-01-31T00:14:19;102024.41;;;1.04;100.00
51229;BME280;37304;52.216;6.874;2023-01-31T00:19:19;102020.94;;;1.04;100.00
51229;BME280;37304;52.216;6.874;2023-01-31T00:24:22;102025.00;;;0.98;100.00
51229;BME280;37304;52.216;6.874;2023-01-31T00:29:23;102034.34;;;0.98;100.00
51229;BME280;37304;52.216;6.874;2023-01-31T00:34:23;102027.44;;;0.95;100.00
51229;BME280;37304;52.216;6.874;2023-01-31T00:39:23;102029.78;;;0.91;100.00
51229;BME280;37304;52.216;6.874;2023-01-31T00:44:24;102036.47;;;0.87;100.00
51229;BME280;37304;52.216;6.874;2023-01-31T00:49:24;102028.72;;;0.85;100.00
51229;BME280;37304;52.216;6.874;2023-01-31T00:54:24;102026.84;;;0.81;100.00
51229;BME280;37304;52.216;6.874;2023-01-31T00:59:25;102020.53;;;0.73;100.00
51229;BME280;37304;52.216;6.874;2023-01-31T01:04:25;102032.31;;;0.69;100.00
51229;BME280;37304;52.216;6.874;2023-01-31T01:09:25;102033.59;;;0.60;100.00
51229;BME280;37304;52.216;6.874;2023-01-31T01:14:26;102023.09;;;0.53;100.00
51229;BME280;37304;52.216;6.874;2023-01-31T01:19:26;102020.53;;;0.53;100.00
51229;BME280;37304;52.216;6.874;2023-01-31T01:24:27;102018.94;;;0.55;100.00
51229;BME280;37304;52.216;6.874;2023-01-31T01:29:28;102016.50;;;0.58;100.00
51229;BME280;37304;52.216;6.874;2023-01-31T01:34:28;102024.16;;;0.58;100.00
51229;BME280;37304;52.216;6.874;2023-01-31T01:39:29;102027.59;;;0.59;100.00
51229;BME280;37304;52.216;6.874;2023-01-31T01:44:53;102036.97;;;0.58;100.00
51229;BME280;37304;52.216;6.874;2023-01-31T01:50:29;102046.38;;;0.60;100.00
51229;BME280;37304;52.216;6.874;2023-01-31T01:55:36;102053.16;;;0.59;100.00
51229;BME280;37304;52.216;6.874;2023-01-31T02:00:37;102050.88;;;0.65;100.00
51229;BME280;37304;52.216;6.874;2023-01-31T02:05:59;102060.72;;;0.56;100.00
51229;BME280;37304;52.216;6.874;2023-01-31T02:16:11;102068.41;;;0.76;100.00
51229;BME280;37304;52.216;6.874;2023-01-31T02:27:14;102057.00;;;0.89;100.00
51229;BME280;37304;52.216;6.874;2023-01-31T02:38:16;102039.09;;;0.89;100.00
51229;BME280;37304;52.216;6.874;2023-01-31T02:49:21;102025.50;;;1.11;100.00
51229;BME280;37304;52.216;6.874;2023-01-31T02:54:35;102010.59;;;1.22;100.00
51229;BME280;37304;52.216;6.874;2023-01-31T02:59:57;102005.97;;;1.34;100.00
51229;BME280;37304;52.216;6.874;2023-01-31T03:04:57;101995.97;;;1.40;100.00
51229;BME280;37304;52.216;6.874;2023-01-31T03:21:27;101984.09;;;1.42;100.00
51229;BME280;37304;52.216;6.874;2023-01-31T03:26:31;101988.50;;;1.47;100.00
51229;BME280;37304;52.216;6.874;2023-01-31T03:31:38;101979.31;;;1.52;100.00
51229;BME280;37304;52.216;6.874;2023-01-31T03:36:57;101961.50;;;1.55;100.00
51229;BME280;37304;52.216;6.874;2023-01-31T03:42:05;101955.78;;;1.62;100.00
51229;BME280;37304;52.216;6.874;2023-01-31T03:52:23;101946.38;;;1.84;100.00
51229;BME280;37304;52.216;6.874;2023-01-31T03:57:34;101947.66;;;1.95;100.00
51229;BME280;37304;52.216;6.874;2023-01-31T04:02:38;101928.81;;;1.95;100.00
51229;BME280;37304;52.216;6.874;2023-01-31T04:07:39;101923.78;;;1.98;100.00
51229;BME280;37304;52.216;6.874;2023-01-31T04:12:40;101924.75;;;2.00;100.00
51229;BME280;37304;52.216;6.874;2023-01-31T04:17:40;101930.09;;;2.06;100.00
51229;BME280;37304;52.216;6.874;2023-01-31T04:22:41;101923.44;;;2.11;100.00
51229;BME280;37304;52.216;6.874;2023-01-31T04:27:41;101917.53;;;2.14;100.00
51229;BME280;37304;52.216;6.874;2023-01-31T04:32:41;101913.44;;;2.19;100.00
51229;BME280;37304;52.216;6.874;2023-01-31T04:37:42;101905.03;;;2.23;100.00
51229;BME280;37304;52.216;6.874;2023-01-31T04:42:42;101888.91;;;2.27;100.00
51229;BME280;37304;52.216;6.874;2023-01-31T04:47:43;101884.72;;;2.29;100.00
51229;BME280;37304;52.216;6.874;2023-01-31T04:52:43;101875.34;;;2.30;100.00
51229;BME280;37304;52.216;6.874;2023-01-31T04:57:43;101871.25;;;2.35;100.00
51229;BME280;37304;52.216;6.874;2023-01-31T05:02:44;101870.47;;;2.38;100.00
51229;BME280;37304;52.216;6.874;2023-01-31T05:07:44;101868.78;;;2.38;100.00
51229;BME280;37304;52.216;6.874;2023-01-31T05:12:45;101856.78;;;2.37;100.00
51229;BME280;37304;52.216;6.874;2023-01-31T05:17:53;101839.69;;;2.38;100.00
51229;BME280;37304;52.216;6.874;2023-01-31T05:23:02;101833.69;;;2.37;100.00
51229;BME280;37304;52.216;6.874;2023-01-31T05:28:03;101825.13;;;2.37;100.00
51229;BME280;37304;52.216;6.874;2023-01-31T05:33:04;101827.78;;;2.40;100.00
51229;BME280;37304;52.216;6.874;2023-01-31T05:38:04;101822.75;;;2.43;100.00
51229;BME280;37304;52.216;6.874;2023-01-31T05:43:05;101827.91;;;2.43;100.00
51229;BME280;37304;52.216;6.874;2023-01-31T05:48:05;101832.09;;;2.41;100.00
51229;BME280;37304;52.216;6.874;2023-01-31T05:53:06;101821.94;;;2.44;100.00
51229;BME280;37304;52.216;6.874;2023-01-31T05:58:06;101829.56;;;2.42;100.00
51229;BME280;37304;52.216;6.874;2023-01-31T06:03:07;101848.44;;;2.44;100.00
51229;BME280;37304;52.216;6.874;2023-01-31T06:08:07;101834.88;;;2.47;100.00
51229;BME280;37304;52.216;6.874;2023-01-31T06:13:09;101832.34;;;2.48;100.00
51229;BME280;37304;52.216;6.874;2023-01-31T06:18:10;101836.00;;;2.55;100.00
51229;BME280;37304;52.216;6.874;2023-01-31T06:23:11;101843.78;;;2.58;100.00
51229;BME280;37304;52.216;6.874;2023-01-31T06:28:11;101848.91;;;2.58;100.00
51229;BME280;37304;52.216;6.874;2023-01-31T06:33:12;101840.44;;;2.61;100.00
51229;BME280;37304;52.216;6.874;2023-01-31T06:38:12;101832.06;;;2.67;100.00
51229;BME280;37304;52.216;6.874;2023-01-31T06:43:15;101820.25;;;2.72;100.00
51229;BME280;37304;52.216;6.874;2023-01-31T06:48:15;101815.22;;;2.75;100.00
51229;BME280;37304;52.216;6.874;2023-01-31T06:53:16;101803.38;;;2.80;100.00
51229;BME280;37304;52.216;6.874;2023-01-31T06:58:16;101796.66;;;2.84;100.00
51229;BME280;37304;52.216;6.874;2023-01-31T07:03:17;101800.28;;;2.90;100.00
51229;BME280;37304;52.216;6.874;2023-01-31T07:08:18;101797.88;;;2.97;100.00
51229;BME280;37304;52.216;6.874;2023-01-31T07:13:18;101783.59;;;3.05;100.00
51229;BME280;37304;52.216;6.874;2023-01-31T07:18:19;101785.44;;;3.09;100.00
51229;BME280;37304;52.216;6.874;2023-01-31T07:23:19;101788.22;;;3.17;100.00
51229;BME280;37304;52.216;6.874;2023-01-31T07:28:20;101786.53;;;3.17;100.00
51229;BME280;37304;52.216;6.874;2023-01-31T07:33:20;101774.53;;;3.18;100.00
51229;BME280;37304;52.216;6.874;2023-01-31T07:38:21;101764.34;;;3.21;100.00
51229;BME280;37304;52.216;6.874;2023-01-31T07:43:21;101760.97;;;3.22;100.00
51229;BME280;37304;52.216;6.874;2023-01-31T07:48:24;101765.41;;;3.28;100.00
51229;BME280;37304;52.216;6.874;2023-01-31T07:53:27;101755.16;;;3.29;100.00
51229;BME280;37304;52.216;6.874;2023-01-31T07:58:34;101750.09;;;3.31;100.00
51229;BME280;37304;52.216;6.874;2023-01-31T08:03:35;101751.13;;;3.38;100.00
51229;BME280;37304;52.216;6.874;2023-01-31T08:08:37;101730.59;;;3.38;100.00
51229;BME280;37304;52.216;6.874;2023-01-31T08:13:37;101729.88;;;3.43;100.00
51229;BME280;37304;52.216;6.874;2023-01-31T08:18:38;101716.19;;;3.44;100.00
51229;BME280;37304;52.216;6.874;2023-01-31T08:23:39;101713.84;;;3.52;100.00
51229;BME280;37304;52.216;6.874;2023-01-31T08:28:41;101719.97;;;3.59;100.00
51229;BME280;37304;52.216;6.874;2023-01-31T08:33:44;101689.19;;;3.60;100.00
51229;BME280;37304;52.216;6.874;2023-01-31T08:38:44;101678.94;;;3.62;100.00
51229;BME280;37304;52.216;6.874;2023-01-31T08:43:45;101674.88;;;3.70;100.00
51229;BME280;37304;52.216;6.874;2023-01-31T08:48:47;101669.00;;;3.74;100.00
51229;BME280;37304;52.216;6.874;2023-01-31T08:53:48;101674.22;;;3.77;100.00
51229;BME280;37304;52.216;6.874;2023-01-31T08:58:56;101662.34;;;3.83;100.00
51229;BME280;37304;52.216;6.874;2023-01-31T09:03:56;101647.81;;;3.86;100.00
51229;BME280;37304;52.216;6.874;2023-01-31T09:08:57;101640.25;;;3.92;100.00
51229;BME280;37304;52.216;6.874;2023-01-31T09:13:57;101630.09;;;3.97;100.00
51229;BME280;37304;52.216;6.874;2023-01-31T09:18:58;101637.03;;;4.01;100.00
51229;BME280;37304;52.216;6.874;2023-01-31T09:23:59;101629.47;;;4.07;100.00
51229;BME280;37304;52.216;6.874;2023-01-31T09:29:03;101617.56;;;4.11;100.00
51229;BME280;37304;52.216;6.874;2023-01-31T09:34:03;101623.63;;;4.15;100.00
51229;BME280;37304;52.216;6.874;2023-01-31T09:39:03;101623.69;;;4.18;100.00
51229;BME280;37304;52.216;6.874;2023-01-31T09:49:17;101635.97;;;4.30;100.00
51229;BME280;37304;52.216;6.874;2023-01-31T09:54:25;101626.66;;;4.35;100.00
51229;BME280;37304;52.216;6.874;2023-01-31T09:59:38;101627.72;;;4.45;100.00
51229;BME280;37304;52.216;6.874;2023-01-31T10:05:03;101624.31;;;4.46;100.00
51229;BME280;37304;52.216;6.874;2023-01-31T10:10:14;101633.84;;;4.50;100.00
51229;BME280;37304;52.216;6.874;2023-01-31T10:15:30;101607.38;;;4.57;100.00
51229;BME280;37304;52.216;6.874;2023-01-31T10:20:41;101602.31;;;4.62;100.00
51229;BME280;37304;52.216;6.874;2023-01-31T10:30:59;101582.81;;;4.73;100.00
51229;BME280;37304;52.216;6.874;2023-01-31T10:36:07;101569.34;;;4.88;100.00
51229;BME280;37304;52.216;6.874;2023-01-31T10:41:26;101580.75;;;5.00;100.00
51229;BME280;37304;52.216;6.874;2023-01-31T10:46:30;101585.81;;;4.96;100.00
51229;BME280;37304;52.216;6.874;2023-01-31T10:56:46;101571.06;;;4.89;100.00
51229;BME280;37304;52.216;6.874;2023-01-31T11:01:47;101560.00;;;4.93;100.00
51229;BME280;37304;52.216;6.874;2023-01-31T11:06:53;101557.41;;;4.92;100.00
51229;BME280;37304;52.216;6.874;2023-01-31T11:12:05;101542.75;;;4.89;100.00
51229;BME280;37304;52.216;6.874;2023-01-31T11:17:32;101558.19;;;4.88;100.00
51229;BME280;37304;52.216;6.874;2023-01-31T11:22:35;101551.34;;;4.90;100.00
51229;BME280;37304;52.216;6.874;2023-01-31T11:27:42;101562.50;;;4.89;100.00
51229;BME280;37304;52.216;6.874;2023-01-31T11:32:44;101532.38;;;4.85;100.00
51229;BME280;37304;52.216;6.874;2023-01-31T11:37:56;101535.88;;;4.88;100.00
51229;BME280;37304;52.216;6.874;2023-01-31T11:43:02;101532.34;;;4.83;100.00
51229;BME280;37304;52.216;6.874;2023-01-31T11:48:14;101545.09;;;4.77;100.00
51229;BME280;37304;52.216;6.874;2023-01-31T11:53:20;101525.22;;;4.68;100.00
51229;BME280;37304;52.216;6.874;2023-01-31T11:58:23;101516.56;;;4.64;100.00
51229;BME280;37304;52.216;6.874;2023-01-31T12:03:25;101528.53;;;4.62;100.00
51229;BME280;37304;52.216;6.874;2023-01-31T12:13:49;101538.72;;;4.56;100.00
51229;BME280;37304;52.216;6.874;2023-01-31T12:24:39;101539.56;;;4.57;100.00
51229;BME280;37304;52.216;6.874;2023-01-31T12:29:49;101551.47;;;4.50;100.00
51229;BME280;37304;52.216;6.874;2023-01-31T12:40:21;101549.84;;;4.55;100.00
51229;BME280;37304;52.216;6.874;2023-01-31T13:01:47;101551.03;;;4.73;100.00
51229;BME280;37304;52.216;6.874;2023-01-31T13:06:54;101533.16;;;4.80;100.00
51229;BME280;37304;52.216;6.874;2023-01-31T13:12:03;101529.84;;;4.88;100.00
51229;BME280;37304;52.216;6.874;2023-01-31T13:17:09;101524.88;;;4.97;100.00
51229;BME280;37304;52.216;6.874;2023-01-31T13:22:16;101523.31;;;5.07;100.00
51229;BME280;37304;52.216;6.874;2023-01-31T13:27:34;101511.50;;;5.20;100.00
51229;BME280;37304;52.216;6.874;2023-01-31T13:32:39;101520.25;;;5.30;100.00
51229;BME280;37304;52.216;6.874;2023-01-31T13:37:44;101514.41;;;5.40;100.00
51229;BME280;37304;52.216;6.874;2023-01-31T13:42:46;101521.38;;;5.47;100.00
51229;BME280;37304;52.216;6.874;2023-01-31T13:47:51;101516.38;;;5.57;100.00
51229;BME280;37304;52.216;6.874;2023-01-31T13:52:55;101507.94;;;5.67;100.00
51229;BME280;37304;52.216;6.874;2023-01-31T13:58:06;101508.91;;;5.75;100.00
51229;BME280;37304;52.216;6.874;2023-01-31T14:03:12;101518.56;;;5.89;100.00
51229;BME280;37304;52.216;6.874;2023-01-31T14:08:37;101507.56;;;6.01;100.00
51229;BME280;37304;52.216;6.874;2023-01-31T14:13:40;101507.66;;;6.08;100.00
51229;BME280;37304;52.216;6.874;2023-01-31T14:18:43;101505.16;;;6.15;100.00
51229;BME280;37304;52.216;6.874;2023-01-31T14:23:45;101481.13;;;6.20;100.00
51229;BME280;37304;52.216;6.874;2023-01-31T14:28:46;101496.63;;;6.22;100.00
51229;BME280;37304;52.216;6.874;2023-01-31T14:33:49;101492.34;;;6.24;100.00
51229;BME280;37304;52.216;6.874;2023-01-31T14:39:21;101505.25;;;6.24;100.00
51229;BME280;37304;52.216;6.874;2023-01-31T14:44:53;101512.97;;;6.19;100.00
51229;BME280;37304;52.216;6.874;2023-01-31T14:55:47;101524.13;;;6.20;100.00
51229;BME280;37304;52.216;6.874;2023-01-31T15:00:56;101517.38;;;6.30;100.00
51229;BME280;37304;52.216;6.874;2023-01-31T15:06:10;101529.50;;;6.35;100.00
51229;BME280;37304;52.216;6.874;2023-01-31T15:16:32;101527.78;;;6.34;100.00
51229;BME280;37304;52.216;6.874;2023-01-31T15:21:51;101526.06;;;6.36;100.00
51229;BME280;37304;52.216;6.874;2023-01-31T15:26:56;101539.00;;;6.38;100.00
51229;BME280;37304;52.216;6.874;2023-01-31T15:32:05;101544.25;;;6.46;100.00
51229;BME280;37304;52.216;6.874;2023-01-31T15:37:19;101541.66;;;6.46;100.00
51229;BME280;37304;52.216;6.874;2023-01-31T15:42:26;101538.28;;;6.51;100.00
51229;BME280;37304;52.216;6.874;2023-01-31T15:47:27;101527.06;;;6.49;100.00
51229;BME280;37304;52.216;6.874;2023-01-31T15:52:27;101527.97;;;6.53;100.00
51229;BME280;37304;52.216;6.874;2023-01-31T15:57:40;101520.25;;;6.58;100.00
51229;BME280;37304;52.216;6.874;2023-01-31T16:02:41;101512.50;;;6.58;100.00
51229;BME280;37304;52.216;6.874;2023-01-31T16:07:45;101497.88;;;6.56;100.00
51229;BME280;37304;52.216;6.874;2023-01-31T16:12:48;101517.75;;;6.62;100.00
51229;BME280;37304;52.216;6.874;2023-01-31T16:17:50;101509.97;;;6.61;100.00
51229;BME280;37304;52.216;6.874;2023-01-31T16:22:55;101528.06;;;6.62;100.00
51229;BME280;37304;52.216;6.874;2023-01-31T16:27:56;101524.59;;;6.60;100.00
51229;BME280;37304;52.216;6.874;2023-01-31T16:33:01;101538.25;;;6.47;100.00
51229;BME280;37304;52.216;6.874;2023-01-31T16:38:04;101539.84;;;6.35;100.00
51229;BME280;37304;52.216;6.874;2023-01-31T16:48:35;101539.53;;;6.14;100.00
51229;BME280;37304;52.216;6.874;2023-01-31T16:53:37;101541.28;;;6.15;100.00
51229;BME280;37304;52.216;6.874;2023-01-31T16:58:48;101557.56;;;6.10;100.00
51229;BME280;37304;52.216;6.874;2023-01-31T17:04:13;101554.13;;;6.11;100.00
51229;BME280;37304;52.216;6.874;2023-01-31T17:09:18;101564.56;;;6.19;100.00
51229;BME280;37304;52.216;6.874;2023-01-31T17:14:19;101563.66;;;6.16;100.00
51229;BME280;37304;52.216;6.874;2023-01-31T17:19:20;101555.91;;;6.14;100.00
51229;BME280;37304;52.216;6.874;2023-01-31T17:24:20;101556.69;;;6.07;100.00
51229;BME280;37304;52.216;6.874;2023-01-31T17:29:23;101577.28;;;6.05;100.00
51229;BME280;37304;52.216;6.874;2023-01-31T17:34:25;101558.19;;;5.95;100.00
51229;BME280;37304;52.216;6.874;2023-01-31T17:39:25;101570.09;;;5.87;100.00
51229;BME280;37304;52.216;6.874;2023-01-31T17:44:26;101561.38;;;5.77;100.00
51229;BME280;37304;52.216;6.874;2023-01-31T17:49:26;101570.69;;;5.67;100.00
51229;BME280;37304;52.216;6.874;2023-01-31T17:54:28;101561.91;;;5.56;100.00
51229;BME280;37304;52.216;6.874;2023-01-31T17:59:28;101566.84;;;5.42;100.00
51229;BME280;37304;52.216;6.874;2023-01-31T18:04:29;101576.25;;;5.38;100.00
51229;BME280;37304;52.216;6.874;2023-01-31T18:09:29;101566.50;;;5.22;100.00
51229;BME280;37304;52.216;6.874;2023-01-31T18:14:30;101568.13;;;5.15;100.00
51229;BME280;37304;52.216;6.874;2023-01-31T18:19:30;101566.34;;;5.13;100.00
51229;BME280;37304;52.216;6.874;2023-01-31T18:24:30;101564.56;;;5.07;100.00
51229;BME280;37304;52.216;6.874;2023-01-31T18:29:31;101568.72;;;5.00;100.00
51229;BME280;37304;52.216;6.874;2023-01-31T18:34:31;101565.03;;;4.87;100.00
51229;BME280;37304;52.216;6.874;2023-01-31T18:39:34;101571.13;;;4.92;100.00
51229;BME280;37304;52.216;6.874;2023-01-31T18:44:35;101564.91;;;4.81;100.00
51229;BME280;37304;52.216;6.874;2023-01-31T18:49:35;101567.19;;;4.64;100.00
51229;BME280;37304;52.216;6.874;2023-01-31T18:54:36;101559.59;;;4.72;100.00
51229;BME280;37304;52.216;6.874;2023-01-31T18:59:37;101574.09;;;4.66;100.00
51229;BME280;37304;52.216;6.874;2023-01-31T19:04:37;101583.38;;;4.58;100.00
51229;BME280;37304;52.216;6.874;2023-01-31T19:09:37;101589.31;;;4.56;100.00
51229;BME280;37304;52.216;6.874;2023-01-31T19:14:38;101592.00;;;4.60;100.00
51229;BME280;37304;52.216;6.874;2023-01-31T19:19:38;101591.94;;;4.59;100.00
51229;BME280;37304;52.216;6.874;2023-01-31T19:24:39;101586.75;;;4.56;100.00
51229;BME280;37304;52.216;6.874;2023-01-31T19:29:39;101583.00;;;4.40;100.00
51229;BME280;37304;52.216;6.874;2023-01-31T19:34:40;101588.09;;;4.36;100.00
51229;BME280;37304;52.216;6.874;2023-01-31T19:39:41;101581.03;;;4.28;100.00
51229;BME280;37304;52.216;6.874;2023-01-31T19:44:41;101581.16;;;4.32;100.00
51229;BME280;37304;52.216;6.874;2023-01-31T19:49:41;101580.09;;;4.24;100.00
51229;BME280;37304;52.216;6.874;2023-01-31T19:54:42;101577.50;;;4.24;100.00
51229;BME280;37304;52.216;6.874;2023-01-31T19:59:42;101576.53;;;4.19;100.00
51229;BME280;37304;52.216;6.874;2023-01-31T20:04:43;101589.28;;;4.13;100.00
51229;BME280;37304;52.216;6.874;2023-01-31T20:09:44;101592.63;;;4.08;100.00
51229;BME280;37304;52.216;6.874;2023-01-31T20:14:44;101590.94;;;4.11;100.00
51229;BME280;37304;52.216;6.874;2023-01-31T20:19:45;101590.75;;;4.01;100.00
51229;BME280;37304;52.216;6.874;2023-01-31T20:24:48;101590.53;;;3.92;100.00
51229;BME280;37304;52.216;6.874;2023-01-31T20:29:49;101595.47;;;3.83;100.00
51229;BME280;37304;52.216;6.874;2023-01-31T20:34:51;101592.13;;;3.87;100.00
51229;BME280;37304;52.216;6.874;2023-01-31T20:39:52;101594.44;;;3.74;100.00
51229;BME280;37304;52.216;6.874;2023-01-31T20:44:58;101580.63;;;3.71;100.00
51229;BME280;37304;52.216;6.874;2023-01-31T20:49:58;101582.09;;;3.61;100.00
51229;BME280;37304;52.216;6.874;2023-01-31T20:54:59;101571.75;;;3.58;100.00
51229;BME280;37304;52.216;6.874;2023-01-31T20:59:59;101580.13;;;3.49;100.00
51229;BME280;37304;52.216;6.874;2023-01-31T21:04:59;101585.03;;;3.40;100.00
51229;BME280;37304;52.216;6.874;2023-01-31T21:10:03;101590.78;;;3.31;100.00
51229;BME280;37304;52.216;6.874;2023-01-31T21:15:03;101605.31;;;3.29;100.00
51229;BME280;37304;52.216;6.874;2023-01-31T21:20:04;101599.38;;;3.31;100.00
51229;BME280;37304;52.216;6.874;2023-01-31T21:25:06;101599.28;;;3.28;100.00
51229;BME280;37304;52.216;6.874;2023-01-31T21:30:07;101600.75;;;3.18;100.00
51229;BME280;37304;52.216;6.874;2023-01-31T21:35:08;101604.84;;;3.12;100.00
51229;BME280;37304;52.216;6.874;2023-01-31T21:40:09;101605.56;;;3.06;100.00
51229;BME280;37304;52.216;6.874;2023-01-31T21:45:12;101601.34;;;3.08;100.00
51229;BME280;37304;52.216;6.874;2023-01-31T21:50:13;101596.97;;;3.04;100.00
51229;BME280;37304;52.216;6.874;2023-01-31T21:55:13;101583.22;;;3.02;100.00
51229;BME280;37304;52.216;6.874;2023-01-31T22:00:16;101586.63;;;3.01;100.00
51229;BME280;37304;52.216;6.874;2023-01-31T22:05:16;101593.41;;;2.99;100.00
51229;BME280;37304;52.216;6.874;2023-01-31T22:10:17;101576.16;;;2.95;100.00
51229;BME280;37304;52.216;6.874;2023-01-31T22:15:17;101575.22;;;2.91;100.00
51229;BME280;37304;52.216;6.874;2023-01-31T22:20:18;101576.00;;;2.88;100.00
51229;BME280;37304;52.216;6.874;2023-01-31T22:25:18;101579.53;;;2.94;100.00
51229;BME280;37304;52.216;6.874;2023-01-31T22:30:21;101575.47;;;3.00;100.00
51229;BME280;37304;52.216;6.874;2023-01-31T22:35:22;101565.88;;;2.95;100.00
51229;BME280;37304;52.216;6.874;2023-01-31T22:40:25;101564.97;;;2.92;100.00
51229;BME280;37304;52.216;6.874;2023-01-31T22:45:28;101550.47;;;2.95;100.00
51229;BME280;37304;52.216;6.874;2023-01-31T22:50:28;101542.97;;;3.02;100.00
51229;BME280;37304;52.216;6.874;2023-01-31T22:55:29;101542.16;;;3.03;100.00
51229;BME280;37304;52.216;6.874;2023-01-31T23:00:29;101530.91;;;2.98;100.00
51229;BME280;37304;52.216;6.874;2023-01-31T23:05:30;101529.38;;;3.06;100.00
51229;BME280;37304;52.216;6.874;2023-01-31T23:10:30;101530.34;;;3.10;100.00
51229;BME280;37304;52.216;6.874;2023-01-31T23:15:31;101534.59;;;3.10;100.00
51229;BME280;37304;52.216;6.874;2023-01-31T23:20:32;101537.16;;;3.10;100.00
51229;BME280;37304;52.216;6.874;2023-01-31T23:25:33;101525.13;;;3.07;100.00
51229;BME280;37304;52.216;6.874;2023-01-31T23:30:33;101525.13;;;3.07;100.00
51229;BME280;37304;52.216;6.874;2023-01-31T23:35:33;101519.09;;;3.05;100.00
51229;BME280;37304;52.216;6.874;2023-01-31T23:40:34;101519.28;;;3.13;100.00
51229;BME280;37304;52.216;6.874;2023-01-31T23:45:34;101508.06;;;3.09;100.00
51229;BME280;37304;52.216;6.874;2023-01-31T23:50:36;101511.53;;;3.11;100.00
51229;BME280;37304;52.216;6.874;2023-01-31T23:55:36;101520.09;;;3.12;100.00
